Time;durP1;ratioP1;P1;durP2;ratioP2;P2;SDS_P1;SDS_P2;PMS_P1;PMS_P2;Temp;Humidity;BMP_temperature;BMP_pressure;BME280_temperature;BME280_humidity;BME280_pressure;Samples;Min_cycle;Max_cycle;Signal;HPM_P1;HPM_P2
2023/09/22 00:00:18;;;;;;;;;;;;;;;20.18;61.36;98032.50;10207985;28;869;-83
2023/09/22 00:05:14;;;;;;;;;;;;;;;20.19;61.42;98034.19;10207033;28;871;-83
2023/09/22 00:10:12;;;;;;;;;;;;;;;20.16;61.40;98031.78;10206896;28;1902;-82
2023/09/22 00:15:09;;;;;;;;;;;;;;;20.17;61.35;98030.81;10206781;28;966;-83
2023/09/22 00:20:08;;;;;;;;;;;;;;;20.13;61.34;98036.34;10206553;28;867;-83
2023/09/22 00:25:04;;;;;;;;;;;;;;;20.12;61.38;98054.97;10206277;28;879;-83
2023/09/22 00:30:00;;;;;;;;;;;;;;;20.11;61.30;98053.31;10205842;28;1902;-83
2023/09/22 00:34:55;;;;;;;;;;;;;;;20.09;61.46;98049.94;10206614;28;811;-82
2023/09/22 00:39:51;;;;;;;;;;;;;;;20.08;61.36;98049.09;10206229;28;1170;-83
2023/09/22 00:44:47;;;;;;;;;;;;;;;20.09;61.56;98073.75;10205950;28;869;-83
2023/09/22 00:49:43;;;;;;;;;;;;;;;20.09;61.27;98071.09;10206002;28;1914;-83
2023/09/22 00:54:39;;;;;;;;;;;;;;;20.07;61.35;98079.19;10204956;28;989;-83
2023/09/22 00:59:35;;;;;;;;;;;;;;;20.07;61.28;98075.69;10205468;28;853;-83
2023/09/22 01:04:31;;;;;;;;;;;;;;;20.05;61.32;98078.44;10204964;28;841;-83
2023/09/22 01:09:27;;;;;;;;;;;;;;;20.06;61.31;98103.91;10204731;28;1906;-83
2023/09/22 01:14:23;;;;;;;;;;;;;;;20.05;61.37;98101.41;10204561;28;784;-83
2023/09/22 01:19:19;;;;;;;;;;;;;;;20.02;61.18;98097.22;10204463;28;796;-82
2023/09/22 01:24:15;;;;;;;;;;;;;;;20.01;61.35;98103.44;10204959;28;966;-83
2023/09/22 01:29:11;;;;;;;;;;;;;;;20.01;61.25;98102.59;10204268;28;1910;-83
2023/09/22 01:34:08;;;;;;;;;;;;;;;19.99;61.24;98107.16;10203541;28;1201;-83
2023/09/22 01:39:05;;;;;;;;;;;;;;;19.99;61.22;98110.69;10204316;28;1241;-82
2023/09/22 01:44:00;;;;;;;;;;;;;;;19.98;61.32;98132.78;10204118;28;882;-83
2023/09/22 01:48:56;;;;;;;;;;;;;;;19.99;61.31;98141.53;10204325;28;1976;-83
2023/09/22 01:53:55;;;;;;;;;;;;;;;19.97;61.20;98154.06;10204341;28;974;-83
2023/09/22 01:58:51;;;;;;;;;;;;;;;19.97;61.31;98144.34;10204201;28;886;-83
2023/09/22 02:03:46;;;;;;;;;;;;;;;19.97;61.19;98148.78;10203592;28;922;-83
2023/09/22 02:08:43;;;;;;;;;;;;;;;19.96;61.35;98155.00;10207539;28;1902;-83
2023/09/22 02:13:40;;;;;;;;;;;;;;;19.94;61.21;98152.50;10211736;28;851;-83
2023/09/22 02:18:36;;;;;;;;;;;;;;;19.93;61.37;98141.06;10211788;28;814;-83
2023/09/22 02:23:32;;;;;;;;;;;;;;;19.93;61.24;98148.16;10211049;28;779;-83
2023/09/22 02:28:28;;;;;;;;;;;;;;;19.91;61.45;98139.50;10211259;28;1902;-83
2023/09/22 02:33:23;;;;;;;;;;;;;;;19.92;61.31;98136.75;10210665;28;964;-83
2023/09/22 02:38:19;;;;;;;;;;;;;;;19.92;61.34;98143.84;10210457;28;1098;-83
2023/09/22 02:43:15;;;;;;;;;;;;;;;19.91;61.39;98142.13;10210030;28;818;-83
2023/09/22 02:48:11;;;;;;;;;;;;;;;19.90;61.36;98157.16;10210596;28;1918;-83
2023/09/22 02:53:07;;;;;;;;;;;;;;;19.89;61.36;98149.38;10210050;28;928;-83
2023/09/22 02:58:03;;;;;;;;;;;;;;;19.87;61.27;98157.41;10209736;28;764;-83
2023/09/22 03:02:59;;;;;;;;;;;;;;;19.86;61.28;98153.09;10209494;28;895;-83
2023/09/22 03:07:55;;;;;;;;;;;;;;;19.85;61.43;98143.47;10209294;28;852;-83
2023/09/22 03:12:52;;;;;;;;;;;;;;;19.85;61.31;98143.47;10208553;28;913;-83
2023/09/22 03:17:48;;;;;;;;;;;;;;;19.83;61.30;98134.84;10207819;28;863;-83
2023/09/22 03:22:44;;;;;;;;;;;;;;;19.84;61.41;98138.31;10208952;28;1229;-83
2023/09/22 03:27:40;;;;;;;;;;;;;;;19.83;61.38;98147.19;10208559;28;824;-83
2023/09/22 03:32:38;;;;;;;;;;;;;;;19.82;61.41;98156.94;10191420;28;1959;-83
2023/09/22 03:37:33;;;;;;;;;;;;;;;19.83;61.39;98150.69;10208441;28;1257;-83
2023/09/22 03:42:29;;;;;;;;;;;;;;;19.82;61.52;98174.59;10208610;28;774;-84
2023/09/22 03:47:25;;;;;;;;;;;;;;;19.81;61.43;98165.81;10208452;28;819;-83
2023/09/22 03:52:21;;;;;;;;;;;;;;;19.79;61.38;98169.53;10208415;28;1967;-83
2023/09/22 03:57:18;;;;;;;;;;;;;;;19.80;61.37;98190.56;10207523;28;925;-83
2023/09/22 04:02:14;;;;;;;;;;;;;;;19.78;61.35;98189.88;10207506;28;861;-83
2023/09/22 04:07:10;;;;;;;;;;;;;;;19.78;61.35;98184.56;10206981;28;842;-83
2023/09/22 04:12:06;;;;;;;;;;;;;;;19.78;61.43;98195.16;10207543;28;1887;-83
2023/09/22 04:17:02;;;;;;;;;;;;;;;19.77;61.58;98193.44;10206104;28;834;-83
2023/09/22 04:21:58;;;;;;;;;;;;;;;19.76;61.27;98164.50;10207163;28;773;-83
2023/09/22 04:26:54;;;;;;;;;;;;;;;19.75;61.48;98152.22;10206323;28;878;-83
2023/09/22 04:31:50;;;;;;;;;;;;;;;19.74;61.52;98150.56;10206594;28;1945;-82
2023/09/22 04:36:46;;;;;;;;;;;;;;;19.73;61.29;98149.72;10205729;28;1228;-82
2023/09/22 04:41:42;;;;;;;;;;;;;;;19.73;61.62;98176.16;10206153;28;917;-82
2023/09/22 04:46:38;;;;;;;;;;;;;;;19.71;61.55;98186.00;10205501;28;788;-83
2023/09/22 04:51:35;;;;;;;;;;;;;;;19.72;61.38;98192.94;10205349;28;1914;-83
2023/09/22 04:56:32;;;;;;;;;;;;;;;19.70;61.48;98198.38;10205675;28;927;-82
2023/09/22 05:01:28;;;;;;;;;;;;;;;19.69;61.50;98190.56;10205036;28;887;-82
2023/09/22 05:06:23;;;;;;;;;;;;;;;19.68;61.44;98195.00;10204962;28;821;-83
2023/09/22 05:11:20;;;;;;;;;;;;;;;19.68;61.65;98199.44;10204832;28;1875;-82
2023/09/22 05:16:18;;;;;;;;;;;;;;;19.67;61.45;98203.03;10204179;28;852;-83
2023/09/22 05:21:14;;;;;;;;;;;;;;;19.66;61.65;98209.25;10203845;28;897;-82
2023/09/22 05:26:10;;;;;;;;;;;;;;;19.65;61.63;98216.34;10203788;28;1175;-82
2023/09/22 05:31:06;;;;;;;;;;;;;;;19.64;61.60;98214.66;10204215;28;1895;-83
2023/09/22 05:36:02;;;;;;;;;;;;;;;19.64;61.49;98214.66;10204738;28;958;-83
2023/09/22 05:40:58;;;;;;;;;;;;;;;19.63;61.59;98199.75;10203936;28;1282;-82
2023/09/22 05:45:54;;;;;;;;;;;;;;;19.62;61.56;98210.44;10203643;28;910;-83
2023/09/22 05:50:50;;;;;;;;;;;;;;;19.62;61.52;98215.72;10204378;28;1914;-82
2023/09/22 05:55:46;;;;;;;;;;;;;;;19.61;61.68;98224.63;10203758;28;819;-82
2023/09/22 06:00:44;;;;;;;;;;;;;;;19.60;61.62;98236.16;10203680;28;889;-82
2023/09/22 06:05:40;;;;;;;;;;;;;;;19.59;61.68;98248.50;10203464;28;856;-83
2023/09/22 06:10:36;;;;;;;;;;;;;;;19.58;61.63;98240.72;10203387;28;1949;-82
2023/09/22 06:15:33;;;;;;;;;;;;;;;19.57;61.63;98231.94;10203127;28;926;-83
2023/09/22 06:20:29;;;;;;;;;;;;;;;19.57;61.69;98228.44;10203857;28;865;-82
2023/09/22 06:25:26;;;;;;;;;;;;;;;19.55;61.62;98233.00;10203097;28;944;-74
2023/09/22 06:30:23;;;;;;;;;;;;;;;19.59;61.57;98253.78;10203789;28;1894;-74
2023/09/22 06:35:19;;;;;;;;;;;;;;;19.60;61.71;98250.22;10203585;28;795;-73
2023/09/22 06:40:15;;;;;;;;;;;;;;;19.59;61.81;98267.00;10203221;28;1408;-74
2023/09/22 06:45:12;;;;;;;;;;;;;;;19.58;61.98;98267.13;10202604;28;859;-74
2023/09/22 06:50:08;;;;;;;;;;;;;;;19.59;62.14;98285.50;10202597;28;1977;-72
2023/09/22 06:55:09;;;;;;;;;;;;;;;19.59;62.16;98271.47;10205567;28;901;-72
2023/09/22 07:00:09;;;;;;;;;;;;;;;19.58;62.56;98272.44;10209611;28;950;-75
2023/09/22 07:05:06;;;;;;;;;;;;;;;19.58;62.33;98277.72;10209543;28;842;-72
2023/09/22 07:10:03;;;;;;;;;;;;;;;19.58;62.39;98267.97;10210437;28;1961;-73
2023/09/22 07:14:59;;;;;;;;;;;;;;;19.60;62.44;98286.38;10209481;28;858;-72
2023/09/22 07:19:55;;;;;;;;;;;;;;;19.60;62.38;98284.56;10208892;28;1014;-71
2023/09/22 07:24:51;;;;;;;;;;;;;;;19.58;62.48;98309.44;10208267;28;1048;-74
2023/09/22 07:29:50;;;;;;;;;;;;;;;19.57;62.42;98313.00;10206967;28;1903;-72
2023/09/22 07:34:46;;;;;;;;;;;;;;;19.57;62.41;98307.72;10208964;28;939;-72
2023/09/22 07:39:42;;;;;;;;;;;;;;;19.55;62.31;98305.22;10208293;28;1125;-71
2023/09/22 07:44:38;;;;;;;;;;;;;;;19.55;62.35;98317.59;10208287;28;906;-72
2023/09/22 07:49:34;;;;;;;;;;;;;;;19.56;62.41;98321.91;10207782;28;1918;-73
2023/09/22 07:54:31;;;;;;;;;;;;;;;19.56;62.72;98321.91;10208244;28;901;-73
2023/09/22 07:59:29;;;;;;;;;;;;;;;19.56;62.56;98329.84;10207383;28;867;-72
2023/09/22 08:04:25;;;;;;;;;;;;;;;19.59;62.64;98334.88;10206536;28;943;-71
2023/09/22 08:09:22;;;;;;;;;;;;;;;19.59;62.55;98333.09;10206224;28;1898;-73
2023/09/22 08:14:17;;;;;;;;;;;;;;;19.59;62.69;98326.97;10207026;28;901;-72
2023/09/22 08:19:13;;;;;;;;;;;;;;;19.58;62.76;98335.84;10205429;28;1248;-72
2023/09/22 08:24:09;;;;;;;;;;;;;;;19.58;62.66;98341.16;10206499;28;784;-73
2023/09/22 08:29:05;;;;;;;;;;;;;;;19.58;62.95;98354.34;10203408;28;1898;-74
2023/09/22 08:34:02;;;;;;;;;;;;;;;19.57;62.70;98340.31;10205975;28;818;-74
2023/09/22 08:38:58;;;;;;;;;;;;;;;19.58;62.69;98346.44;10206056;28;1265;-73
2023/09/22 08:43:54;;;;;;;;;;;;;;;19.54;62.59;98334.38;10205415;28;916;-73
2023/09/22 08:48:51;;;;;;;;;;;;;;;19.56;62.64;98343.03;10204275;28;1918;-74
2023/09/22 08:53:47;;;;;;;;;;;;;;;19.58;62.53;98325.28;10205554;28;786;-74
2023/09/22 08:58:43;;;;;;;;;;;;;;;19.56;62.43;98322.75;10204183;28;775;-73
2023/09/22 09:03:39;;;;;;;;;;;;;;;19.55;62.46;98322.88;10205139;28;878;-74
2023/09/22 09:08:35;;;;;;;;;;;;;;;19.54;62.72;98334.38;10204286;28;1894;-74
2023/09/22 09:13:31;;;;;;;;;;;;;;;19.55;62.64;98330.81;10205123;28;821;-73
2023/09/22 09:18:27;;;;;;;;;;;;;;;19.55;62.58;98328.16;10203685;28;795;-74
2023/09/22 09:23:23;;;;;;;;;;;;;;;19.54;62.62;98337.03;10203692;28;1368;-73
2023/09/22 09:28:19;;;;;;;;;;;;;;;19.55;62.54;98336.09;10203880;28;1961;-72
2023/09/22 09:33:15;;;;;;;;;;;;;;;19.57;62.57;98334.16;10203982;28;885;-73
2023/09/22 09:38:11;;;;;;;;;;;;;;;19.59;62.52;98340.19;10203285;28;1269;-72
2023/09/22 09:43:08;;;;;;;;;;;;;;;19.57;62.56;98342.09;10203321;28;936;-72
2023/09/22 09:48:05;;;;;;;;;;;;;;;19.56;62.58;98337.75;10203070;28;805;-72
2023/09/22 09:53:01;;;;;;;;;;;;;;;19.57;62.46;98331.50;10203921;28;1926;-72
2023/09/22 09:57:57;;;;;;;;;;;;;;;19.60;62.34;98328.66;10202900;28;833;-71
2023/09/22 10:02:57;;;;;;;;;;;;;;;19.58;61.95;98336.69;10204018;28;842;-72
2023/09/22 10:07:57;;;;;;;;;;;;;;;19.53;62.30;98341.47;10202670;28;882;-72
2023/09/22 10:12:52;;;;;;;;;;;;;;;19.50;62.25;98354.91;10203856;28;1902;-71
2023/09/22 10:17:48;;;;;;;;;;;;;;;19.47;61.98;98350.69;10203599;28;903;-72
2023/09/22 10:22:44;;;;;;;;;;;;;;;19.48;62.19;98352.38;10202905;28;842;-72
2023/09/22 10:27:40;;;;;;;;;;;;;;;19.56;61.98;98343.88;10203136;28;1049;-72
2023/09/22 10:32:36;;;;;;;;;;;;;;;19.53;62.08;98344.13;10210141;28;1969;-71
2023/09/22 10:37:35;;;;;;;;;;;;;;;19.49;62.12;98348.78;10209555;28;1579;-72
2023/09/22 10:42:31;;;;;;;;;;;;;;;19.52;62.15;98346.84;10209805;28;799;-72
2023/09/22 10:47:27;;;;;;;;;;;;;;;19.55;61.96;98363.34;10209438;28;1008;-71
2023/09/22 10:52:26;;;;;;;;;;;;;;;19.62;61.99;98364.59;10209418;28;1977;-72
2023/09/22 10:57:21;;;;;;;;;;;;;;;19.61;62.14;98352.31;10209778;28;794;-70
2023/09/22 11:02:17;;;;;;;;;;;;;;;19.61;62.21;98357.59;10209126;28;870;-72
2023/09/22 11:07:13;;;;;;;;;;;;;;;19.61;62.28;98367.34;10208540;28;913;-72
2023/09/22 11:12:09;;;;;;;;;;;;;;;19.62;62.16;98369.03;10208773;28;1894;-72
2023/09/22 11:17:05;;;;;;;;;;;;;;;19.66;62.10;98376.66;10208539;28;876;-72
2023/09/22 11:22:01;;;;;;;;;;;;;;;19.67;62.21;98377.50;10208478;28;956;-72
2023/09/22 11:26:57;;;;;;;;;;;;;;;19.68;62.06;98365.97;10209357;28;903;-73
2023/09/22 11:31:56;;;;;;;;;;;;;;;19.61;62.22;98375.28;10208555;28;1957;-72
2023/09/22 11:36:52;;;;;;;;;;;;;;;19.63;62.24;98378.66;10208098;28;1249;-71
2023/09/22 11:41:48;;;;;;;;;;;;;;;19.59;62.13;98385.94;10207476;28;826;-70
2023/09/22 11:46:44;;;;;;;;;;;;;;;19.56;61.98;98396.75;10206406;28;943;-69
2023/09/22 11:51:43;;;;;;;;;;;;;;;19.59;61.89;98390.41;10206721;28;1910;-70
2023/09/22 11:56:39;;;;;;;;;;;;;;;19.61;61.63;98388.50;10207340;28;946;-70
2023/09/22 12:01:35;;;;;;;;;;;;;;;19.65;61.54;98392.63;10206467;28;854;-69
2023/09/22 12:06:35;;;;;;;;;;;;;;;19.65;61.64;98389.97;10206920;28;879;-69
2023/09/22 12:11:31;;;;;;;;;;;;;;;19.64;61.54;98386.47;10207145;28;1948;-68
2023/09/22 12:16:27;;;;;;;;;;;;;;;19.66;61.57;98392.53;10206332;28;782;-70
2023/09/22 12:21:23;;;;;;;;;;;;;;;19.66;60.43;98394.28;10207058;28;872;-72
2023/09/22 12:26:20;;;;;;;;;;;;;;;19.63;60.76;98397.16;10206048;28;830;-74
2023/09/22 12:31:16;;;;;;;;;;;;;;;19.64;61.06;98391.75;10205381;28;1898;-73
2023/09/22 12:36:13;;;;;;;;;;;;;;;19.66;60.77;98394.28;10205277;28;913;-74
2023/09/22 12:41:10;;;;;;;;;;;;;;;19.63;60.41;98391.88;10205373;28;1323;-74
2023/09/22 12:46:06;;;;;;;;;;;;;;;19.68;60.72;98403.00;10204713;28;982;-74
2023/09/22 12:51:01;;;;;;;;;;;;;;;19.76;60.52;98405.91;10205453;28;1978;-72
2023/09/22 12:55:57;;;;;;;;;;;;;;;19.86;60.59;98399.00;10205323;28;877;-69
2023/09/22 13:00:53;;;;;;;;;;;;;;;19.90;60.12;98395.16;10204721;28;776;-71
2023/09/22 13:05:49;;;;;;;;;;;;;;;19.85;60.29;98394.66;10204599;28;862;-72
2023/09/22 13:10:46;;;;;;;;;;;;;;;19.95;59.78;98386.06;10204827;28;1898;-72
2023/09/22 13:15:42;;;;;;;;;;;;;;;20.08;59.81;98382.38;10204380;28;903;-73
2023/09/22 13:20:38;;;;;;;;;;;;;;;20.17;59.80;98390.59;10204655;28;839;-73
2023/09/22 13:25:34;;;;;;;;;;;;;;;20.24;59.63;98386.53;10204328;28;897;-72
2023/09/22 13:30:30;;;;;;;;;;;;;;;20.06;60.21;98379.00;10204490;28;1972;-72
2023/09/22 13:35:28;;;;;;;;;;;;;;;20.26;59.67;98374.03;10203569;28;890;-69
2023/09/22 13:40:23;;;;;;;;;;;;;;;20.42;59.12;98376.38;10203909;28;1240;-71
2023/09/22 13:45:19;;;;;;;;;;;;;;;20.45;59.38;98374.31;10203764;28;842;-71
2023/09/22 13:50:15;;;;;;;;;;;;;;;20.53;59.09;98371.09;10203782;28;1972;-72
2023/09/22 13:55:12;;;;;;;;;;;;;;;20.38;59.64;98383.69;10202908;28;1123;-71
2023/09/22 14:00:11;;;;;;;;;;;;;;;20.21;60.06;98382.31;10203531;28;847;-70
2023/09/22 14:05:07;;;;;;;;;;;;;;;20.57;59.13;98378.72;10209697;28;810;-70
2023/09/22 14:10:03;;;;;;;;;;;;;;;20.75;58.69;98386.19;10212033;28;1957;-70
2023/09/22 14:14:59;;;;;;;;;;;;;;;20.93;58.20;98384.78;10211587;28;960;-70
2023/09/22 14:19:55;;;;;;;;;;;;;;;20.61;59.32;98384.63;10212260;28;839;-69
2023/09/22 14:24:52;;;;;;;;;;;;;;;21.01;58.40;98386.81;10211308;28;853;-71
2023/09/22 14:29:48;;;;;;;;;;;;;;;21.08;58.47;98388.03;10211450;28;1894;-71
2023/09/22 14:34:43;;;;;;;;;;;;;;;21.03;58.57;98387.53;10211426;28;894;-71
2023/09/22 14:39:39;;;;;;;;;;;;;;;20.85;59.14;98397.75;10211338;28;1439;-70
2023/09/22 14:44:35;;;;;;;;;;;;;;;20.92;58.75;98396.34;10210266;28;826;-70
2023/09/22 14:49:32;;;;;;;;;;;;;;;20.96;58.41;98403.09;10210712;28;1910;-70
2023/09/22 14:54:28;;;;;;;;;;;;;;;21.12;58.24;98399.25;10210035;28;891;-71
2023/09/22 14:59:24;;;;;;;;;;;;;;;21.15;58.36;98405.13;10210532;28;784;-71
2023/09/22 15:04:19;;;;;;;;;;;;;;;21.29;58.37;98398.75;10209581;28;949;-71
2023/09/22 15:09:17;;;;;;;;;;;;;;;21.26;58.48;98403.44;10209453;28;1894;-72
2023/09/22 15:14:13;;;;;;;;;;;;;;;21.11;59.06;98408.97;10208668;28;767;-69
2023/09/22 15:19:09;;;;;;;;;;;;;;;20.82;59.88;98405.94;10208777;28;913;-69
2023/09/22 15:24:05;;;;;;;;;;;;;;;21.00;59.49;98409.81;10209250;28;989;-70
2023/09/22 15:29:01;;;;;;;;;;;;;;;21.21;58.92;98407.28;10208749;28;1934;-71
2023/09/22 15:33:57;;;;;;;;;;;;;;;21.07;59.45;98404.06;10208501;28;978;-71
2023/09/22 15:38:53;;;;;;;;;;;;;;;21.00;59.57;98404.53;10207919;28;1433;-71
2023/09/22 15:43:48;;;;;;;;;;;;;;;20.74;60.22;98406.53;10208158;28;914;-71
2023/09/22 15:48:44;;;;;;;;;;;;;;;20.58;60.63;98403.38;10208121;28;1974;-70
2023/09/22 15:53:40;;;;;;;;;;;;;;;20.53;60.75;98394.91;10208213;28;851;-71
2023/09/22 15:58:36;;;;;;;;;;;;;;;20.42;61.00;98395.72;10207076;28;1051;-71
2023/09/22 16:03:32;;;;;;;;;;;;;;;20.35;61.09;98407.72;10207471;28;781;-72
2023/09/22 16:08:28;;;;;;;;;;;;;;;20.30;61.20;98397.50;10207140;28;1899;-71
2023/09/22 16:13:24;;;;;;;;;;;;;;;20.25;61.36;98402.31;10207095;28;921;-71
2023/09/22 16:18:20;;;;;;;;;;;;;;;20.21;61.21;98403.47;10207457;28;766;-71
2023/09/22 16:23:15;;;;;;;;;;;;;;;20.20;61.20;98414.16;10207847;28;934;-69
2023/09/22 16:28:11;;;;;;;;;;;;;;;20.16;61.16;98420.66;10206769;28;878;-76
2023/09/22 16:33:07;;;;;;;;;;;;;;;20.14;61.39;98416.31;10206310;28;1963;-76
2023/09/22 16:38:03;;;;;;;;;;;;;;;20.13;61.28;98416.44;10206830;28;1126;-76
2023/09/22 16:42:59;;;;;;;;;;;;;;;20.11;61.29;98424.47;10206052;28;846;-77
2023/09/22 16:47:58;;;;;;;;;;;;;;;20.10;61.34;98427.25;10206198;28;825;-73
2023/09/22 16:52:54;;;;;;;;;;;;;;;20.07;61.49;98430.97;10205475;28;1883;-72
2023/09/22 16:57:50;;;;;;;;;;;;;;;20.04;61.32;98438.25;10205840;28;863;-73
2023/09/22 17:02:46;;;;;;;;;;;;;;;20.03;61.33;98468.34;10205326;28;924;-72
2023/09/22 17:07:42;;;;;;;;;;;;;;;20.01;61.29;98484.28;10204999;28;897;-74
2023/09/22 17:12:38;;;;;;;;;;;;;;;19.98;61.11;98500.41;10204925;28;1898;-74
2023/09/22 17:17:34;;;;;;;;;;;;;;;19.96;61.31;98504.09;10205645;28;862;-74
2023/09/22 17:22:30;;;;;;;;;;;;;;;19.92;61.25;98508.78;10204702;28;803;-74
2023/09/22 17:27:26;;;;;;;;;;;;;;;19.87;61.26;98509.09;10204537;28;867;-73
2023/09/22 17:32:22;;;;;;;;;;;;;;;19.85;61.33;98502.22;10203535;28;1894;-73
2023/09/22 17:37:18;;;;;;;;;;;;;;;19.84;61.29;98505.84;10203030;28;1240;-73
2023/09/22 17:42:15;;;;;;;;;;;;;;;19.83;61.18;98497.06;10204731;28;834;-73
2023/09/22 17:47:11;;;;;;;;;;;;;;;19.83;61.02;98499.72;10203944;28;1053;-72
2023/09/22 17:52:07;;;;;;;;;;;;;;;19.82;60.98;98508.59;10203707;28;1922;-73
2023/09/22 17:57:03;;;;;;;;;;;;;;;19.82;61.03;98518.31;10204484;28;917;-73
2023/09/22 18:01:59;;;;;;;;;;;;;;;19.81;61.18;98511.34;10203743;28;781;-72
2023/09/22 18:06:55;;;;;;;;;;;;;;;19.80;61.09;98515.78;10203645;28;981;-73
2023/09/22 18:11:51;;;;;;;;;;;;;;;19.79;61.08;98506.16;10204016;28;1898;-73
2023/09/22 18:16:47;;;;;;;;;;;;;;;19.77;61.28;98502.78;10202873;28;870;-73
2023/09/22 18:21:44;;;;;;;;;;;;;;;19.77;61.14;98508.06;10203202;28;767;-73
2023/09/22 18:26:40;;;;;;;;;;;;;;;19.76;61.38;98506.38;10203384;28;865;-73
2023/09/22 18:31:37;;;;;;;;;;;;;;;19.75;61.28;98502.03;10203647;28;1910;-73
2023/09/22 18:36:33;;;;;;;;;;;;;;;19.74;61.29;98510.94;10202941;28;1423;-72
2023/09/22 18:41:29;;;;;;;;;;;;;;;19.73;61.30;98519.84;10203134;28;914;-78
2023/09/22 18:46:25;;;;;;;;;;;;;;;19.72;61.42;98518.13;10204087;28;944;-77
2023/09/22 18:51:22;;;;;;;;;;;;;;;19.74;61.54;98523.31;10207701;28;1914;-73
2023/09/22 18:56:18;;;;;;;;;;;;;;;19.73;61.53;98522.47;10210021;28;863;-71
2023/09/22 19:01:15;;;;;;;;;;;;;;;19.73;61.39;98522.47;10210072;28;856;-72
2023/09/22 19:06:11;;;;;;;;;;;;;;;19.71;61.37;98519.09;10209615;28;911;-69
2023/09/22 19:11:08;;;;;;;;;;;;;;;19.71;61.56;98516.44;10208829;28;1894;-72
2023/09/22 19:16:04;;;;;;;;;;;;;;;19.70;61.47;98531.47;10209801;28;948;-72
2023/09/22 19:21:02;;;;;;;;;;;;;;;19.70;61.45;98536.75;10209120;28;846;-73
2023/09/22 19:25:59;;;;;;;;;;;;;;;19.69;61.43;98540.34;10208274;28;851;-73
2023/09/22 19:30:55;;;;;;;;;;;;;;;19.69;61.55;98542.13;10208721;28;1891;-73
2023/09/22 19:35:51;;;;;;;;;;;;;;;19.70;61.49;98551.75;10209107;28;854;-70
2023/09/22 19:40:49;;;;;;;;;;;;;;;19.69;61.64;98550.06;10208089;28;1118;-70
2023/09/22 19:45:45;;;;;;;;;;;;;;;19.68;61.51;98558.97;10208086;28;962;-70
2023/09/22 19:50:40;;;;;;;;;;;;;;;19.69;61.58;98561.47;10208084;28;1974;-71
2023/09/22 19:55:36;;;;;;;;;;;;;;;19.68;61.56;98554.53;10207414;28;968;-71
2023/09/22 20:00:39;;;;;;;;;;;;;;;19.69;61.66;98571.22;10207208;28;856;-70
2023/09/22 20:05:35;;;;;;;;;;;;;;;19.67;61.57;98562.53;10207762;28;858;-70
2023/09/22 20:10:32;;;;;;;;;;;;;;;19.66;61.70;98569.63;10207625;28;1894;-72
2023/09/22 20:15:28;;;;;;;;;;;;;;;19.66;61.71;98574.03;10207615;28;794;-74
2023/09/22 20:20:24;;;;;;;;;;;;;;;19.66;61.71;98584.63;10206851;28;865;-71
2023/09/22 20:25:20;;;;;;;;;;;;;;;19.65;61.86;98582.94;10206635;28;838;-71
2023/09/22 20:30:16;;;;;;;;;;;;;;;19.65;61.73;98590.88;10207478;28;1901;-71
2023/09/22 20:35:12;;;;;;;;;;;;;;;19.65;61.84;98604.94;10206307;28;986;-70
2023/09/22 20:40:09;;;;;;;;;;;;;;;19.63;61.72;98604.19;10205401;28;1320;-72
2023/09/22 20:45:08;;;;;;;;;;;;;;;19.61;61.67;98614.00;10207182;28;1684;-72
2023/09/22 20:50:03;;;;;;;;;;;;;;;19.62;61.72;98620.13;10245909;28;1967;-71
2023/09/22 20:54:59;;;;;;;;;;;;;;;19.62;61.66;98623.66;10246513;28;860;-73
2023/09/22 20:59:57;;;;;;;;;;;;;;;19.61;61.88;98626.38;10246318;28;779;-75
2023/09/22 21:04:54;;;;;;;;;;;;;;;19.59;61.64;98629.13;10245407;28;896;-77
2023/09/22 21:09:50;;;;;;;;;;;;;;;19.60;61.65;98630.00;10244924;28;1883;-76
2023/09/22 21:14:47;;;;;;;;;;;;;;;19.60;61.71;98630.00;10244723;28;857;-76
2023/09/22 21:19:43;;;;;;;;;;;;;;;19.58;61.69;98634.53;10244993;28;869;-76
2023/09/22 21:24:39;;;;;;;;;;;;;;;19.59;61.85;98638.84;10244845;28;913;-76
2023/09/22 21:29:34;;;;;;;;;;;;;;;19.56;61.69;98647.84;10244599;28;1902;-76
2023/09/22 21:34:30;;;;;;;;;;;;;;;19.57;61.76;98644.25;10244583;28;779;-76
2023/09/22 21:39:27;;;;;;;;;;;;;;;19.56;61.58;98647.00;10245452;28;1284;-76
2023/09/22 21:44:25;;;;;;;;;;;;;;;19.56;61.76;98653.13;10245061;28;838;-77
2023/09/22 21:49:21;;;;;;;;;;;;;;;19.54;61.62;98655.03;10244645;28;1975;-76
2023/09/22 21:54:17;;;;;;;;;;;;;;;19.55;61.80;98663.81;10244350;28;931;-76
2023/09/22 21:59:13;;;;;;;;;;;;;;;19.53;61.57;98676.28;10244536;28;944;-76
2023/09/22 22:04:09;;;;;;;;;;;;;;;19.51;61.60;98676.38;10243277;28;1060;-76
2023/09/22 22:09:14;;;;;;;;;;;;;;;19.51;61.76;98681.66;10243785;28;1969;-76
2023/09/22 22:14:13;;;;;;;;;;;;;;;19.52;61.61;98685.16;10244428;28;787;-76
2023/09/22 22:19:08;;;;;;;;;;;;;;;19.50;61.67;98698.47;10243016;28;898;-76
2023/09/22 22:24:05;;;;;;;;;;;;;;;19.49;61.69;98708.22;10245259;28;780;-76
2023/09/22 22:29:01;;;;;;;;;;;;;;;19.49;61.61;98718.78;10251364;28;1953;-76
2023/09/22 22:33:59;;;;;;;;;;;;;;;19.49;61.77;98720.56;10251909;28;920;-76
2023/09/22 22:38:55;;;;;;;;;;;;;;;19.48;61.51;98721.53;10251322;28;1165;-76
2023/09/22 22:43:51;;;;;;;;;;;;;;;19.47;61.72;98725.97;10250886;28;842;-75
2023/09/22 22:48:46;;;;;;;;;;;;;;;19.46;61.64;98737.47;10251167;28;1961;-76
2023/09/22 22:53:42;;;;;;;;;;;;;;;19.45;61.64;98738.44;10251137;28;913;-76
2023/09/22 22:58:42;;;;;;;;;;;;;;;19.45;61.53;98754.28;10250275;28;847;-76
2023/09/22 23:03:38;;;;;;;;;;;;;;;19.46;61.69;98760.41;10250687;28;864;-76
2023/09/22 23:08:34;;;;;;;;;;;;;;;19.45;61.66;98769.28;10250043;28;800;-76
2023/09/22 23:13:30;;;;;;;;;;;;;;;19.45;61.70;98769.28;10249080;28;1947;-75
2023/09/22 23:18:26;;;;;;;;;;;;;;;19.44;61.44;98786.09;10249622;28;803;-76
2023/09/22 23:23:23;;;;;;;;;;;;;;;19.44;61.54;98799.28;10250616;28;839;-76
2023/09/22 23:28:18;;;;;;;;;;;;;;;19.43;61.60;98808.19;10249451;28;921;-76
2023/09/22 23:33:14;;;;;;;;;;;;;;;19.43;61.64;98808.19;10249052;28;1884;-76
2023/09/22 23:38:10;;;;;;;;;;;;;;;19.41;61.45;98813.59;10247196;28;1239;-76
2023/09/22 23:43:08;;;;;;;;;;;;;;;19.41;61.71;98833.84;10248673;28;956;-76
2023/09/22 23:48:04;;;;;;;;;;;;;;;19.39;61.57;98833.13;10248382;28;887;-76
2023/09/22 23:53:00;;;;;;;;;;;;;;;19.39;61.46;98836.63;10248761;28;1918;-76
2023/09/22 23:57:58;;;;;;;;;;;;;;;19.38;61.53;98842.81;10248090;28;799;-76
